createdAt,value
2017-08-09T00:00:38.131Z,99.99
2017-08-09T00:01:37.813Z,99.99
2017-08-09T00:02:38.101Z,99.99
2017-08-09T00:03:38.182Z,99.99
2017-08-09T00:04:38.069Z,99.99
2017-08-09T00:05:38.151Z,99.99
2017-08-09T00:06:38.031Z,99.99
2017-08-09T00:07:38.087Z,99.99
2017-08-09T00:08:37.997Z,99.99
2017-08-09T00:09:38.080Z,99.99
2017-08-09T00:10:37.972Z,99.99
2017-08-09T00:11:37.640Z,99.99
2017-08-09T00:12:37.931Z,99.99
2017-08-09T00:13:37.975Z,99.99
2017-08-09T00:14:37.889Z,99.99
2017-08-09T00:15:37.569Z,99.99
2017-08-09T00:16:37.862Z,99.99
2017-08-09T00:17:37.858Z,99.99
2017-08-09T00:18:37.834Z,99.99
2017-08-09T00:19:37.501Z,99.99
2017-08-09T00:20:37.818Z,99.99
2017-08-09T00:21:37.781Z,99.99
2017-08-09T00:22:37.450Z,99.99
2017-08-09T00:23:37.441Z,99.99
2017-08-09T00:24:37.721Z,99.99
2017-08-09T00:25:37.393Z,99.99
2017-08-09T00:26:37.701Z,99.99
2017-08-09T00:27:37.669Z,99.99
2017-08-09T00:28:37.648Z,99.99
2017-08-09T00:29:37.641Z,99.99
2017-08-09T00:30:37.620Z,99.99
2017-08-09T00:31:37.601Z,99.99
2017-08-09T00:32:37.583Z,99.99
2017-08-09T00:33:37.569Z,99.99
2017-08-09T00:34:37.778Z,99.99
2017-08-09T00:35:37.531Z,99.99
2017-08-09T00:36:37.531Z,99.99
2017-08-09T00:37:37.501Z,99.99
2017-08-09T00:38:37.171Z,99.99
2017-08-09T00:39:37.473Z,99.99
2017-08-09T00:40:37.451Z,99.99
2017-08-09T00:41:37.430Z,99.99
2017-08-09T00:42:37.410Z,99.99
2017-08-09T00:43:37.413Z,99.99
2017-08-09T00:44:37.375Z,99.99
2017-08-09T00:45:37.050Z,99.99
2017-08-09T00:46:37.351Z,99.99
2017-08-09T00:47:37.023Z,99.99
2017-08-09T00:48:37.311Z,99.99
2017-08-09T00:49:36.979Z,99.99
2017-08-09T00:50:36.974Z,99.99
2017-08-09T00:51:37.261Z,99.99
2017-08-09T00:52:37.303Z,99.99
2017-08-09T00:53:37.222Z,99.99
2017-08-09T00:54:36.901Z,99.99
2017-08-09T00:55:37.187Z,99.99
2017-08-09T00:56:36.929Z,99.99
2017-08-09T00:57:37.160Z,99.99
2017-08-09T00:58:37.140Z,99.99
2017-08-09T00:59:36.831Z,99.99
2017-08-09T01:00:36.802Z,99.99
2017-08-09T01:01:36.803Z,99.99
2017-08-09T01:02:37.122Z,99.99
2017-08-09T01:03:37.051Z,99.99
2017-08-09T01:04:37.043Z,99.99
2017-08-09T01:05:36.709Z,99.99
2017-08-09T01:06:37.001Z,99.99
2017-08-09T01:07:36.983Z,99.99
2017-08-09T01:08:36.983Z,99.99
2017-08-09T01:09:36.650Z,99.99
2017-08-09T01:10:36.933Z,99.99
2017-08-09T01:11:36.610Z,99.99
2017-08-09T01:12:36.902Z,99.99
2017-08-09T01:13:36.922Z,99.99
2017-08-09T01:14:36.861Z,99.99
2017-08-09T01:15:36.550Z,99.99
2017-08-09T01:16:36.829Z,99.99
2017-08-09T01:17:36.821Z,99.99
2017-08-09T01:18:36.801Z,99.99
2017-08-09T01:19:36.779Z,99.99
2017-08-09T01:20:36.767Z,99.99
2017-08-09T01:21:36.750Z,99.99
2017-08-09T01:22:36.733Z,99.99
2017-08-09T01:23:36.403Z,99.99
2017-08-09T01:24:36.391Z,99.99
2017-08-09T01:25:36.382Z,99.99
2017-08-09T01:26:36.353Z,99.99
2017-08-09T01:27:36.657Z,99.99
2017-08-09T01:28:36.322Z,99.99
2017-08-09T01:29:36.609Z,99.99
2017-08-09T01:30:36.610Z,99.99
2017-08-09T01:31:36.582Z,99.99
2017-08-09T01:32:36.558Z,99.99
2017-08-09T01:33:36.550Z,99.99
2017-08-09T01:34:36.531Z,99.99
2017-08-09T01:35:36.529Z,99.99
2017-08-09T01:36:36.190Z,99.99
2017-08-09T01:37:36.480Z,99.99
2017-08-09T01:38:36.470Z,99.99
2017-08-09T01:39:36.132Z,99.99
2017-08-09T01:40:36.132Z,99.99
2017-08-09T01:41:36.430Z,99.99
2017-08-09T01:42:36.080Z,99.99
2017-08-09T01:43:36.071Z,99.99
2017-08-09T01:44:36.360Z,99.99
2017-08-09T01:45:36.341Z,99.99
2017-08-09T01:46:36.323Z,99.99
2017-08-09T01:47:36.311Z,99.99
2017-08-09T01:48:36.292Z,99.99
2017-08-09T01:49:35.965Z,99.99
2017-08-09T01:50:36.250Z,99.99
2017-08-09T01:51:36.240Z,99.99
2017-08-09T01:52:36.216Z,99.99
2017-08-09T01:53:36.209Z,99.99
2017-08-09T01:54:36.189Z,99.99
2017-08-09T01:55:36.166Z,99.99
2017-08-09T01:56:35.851Z,99.99
2017-08-09T01:57:36.142Z,99.99
2017-08-09T01:58:36.117Z,99.99
2017-08-09T01:59:36.101Z,99.99
2017-08-09T02:00:36.091Z,99.99
2017-08-09T02:01:36.072Z,99.99
2017-08-09T02:02:36.052Z,99.99
2017-08-09T02:03:36.038Z,99.99
2017-08-09T02:04:36.050Z,99.99
2017-08-09T02:05:36.001Z,99.99
2017-08-09T02:06:35.990Z,99.99
2017-08-09T02:07:35.969Z,99.99
2017-08-09T02:08:35.952Z,99.99
2017-08-09T02:09:35.630Z,99.99
2017-08-09T02:10:35.942Z,99.99
2017-08-09T02:11:35.902Z,99.99
2017-08-09T02:12:35.891Z,99.99
2017-08-09T02:13:35.867Z,99.99
2017-08-09T02:14:35.851Z,99.99
2017-08-09T02:15:35.830Z,99.99
2017-08-09T02:16:35.509Z,99.99
2017-08-09T02:17:35.802Z,99.99
2017-08-09T02:18:35.782Z,99.99
2017-08-09T02:19:35.769Z,99.99
2017-08-09T02:20:35.750Z,99.99
2017-08-09T02:21:35.730Z,99.99
2017-08-09T02:22:35.710Z,99.99
2017-08-09T02:23:35.690Z,99.99
2017-08-09T02:24:35.374Z,99.99
2017-08-09T02:25:35.354Z,99.99
2017-08-09T02:26:35.645Z,99.99
2017-08-09T02:27:35.632Z,99.99
2017-08-09T02:28:35.619Z,99.99
2017-08-09T02:29:35.600Z,99.99
2017-08-09T02:30:35.281Z,99.99
2017-08-09T02:31:35.253Z,99.99
2017-08-09T02:32:35.560Z,99.99
2017-08-09T02:33:35.530Z,99.99
2017-08-09T02:34:35.509Z,99.99
2017-08-09T02:35:35.500Z,99.99
2017-08-09T02:36:35.481Z,99.99
2017-08-09T02:37:35.454Z,99.99
2017-08-09T02:38:35.447Z,99.99
2017-08-09T02:39:35.420Z,99.99
2017-08-09T02:40:35.101Z,99.99
2017-08-09T02:41:35.091Z,99.99
2017-08-09T02:42:35.372Z,99.99
2017-08-09T02:43:35.051Z,99.99
2017-08-09T02:44:35.340Z,99.99
2017-08-09T02:45:35.319Z,99.99
2017-08-09T02:46:35.010Z,99.99
2017-08-09T02:47:35.291Z,99.99
2017-08-09T02:48:35.268Z,99.99
2017-08-09T02:49:35.350Z,99.99
2017-08-09T02:50:34.936Z,99.99
2017-08-09T02:51:34.960Z,99.99
2017-08-09T02:52:34.901Z,99.99
2017-08-09T02:53:35.030Z,99.99
2017-08-09T02:54:35.170Z,99.99
2017-08-09T02:55:34.884Z,99.99
2017-08-09T02:56:35.140Z,99.99
2017-08-09T02:57:34.943Z,99.99
2017-08-09T02:58:34.791Z,99.99
2017-08-09T02:59:34.812Z,99.99
2017-08-09T03:00:35.072Z,99.99
2017-08-09T03:01:34.748Z,99.99
2017-08-09T03:02:34.727Z,99.99
2017-08-09T03:03:35.013Z,99.99
2017-08-09T03:04:34.702Z,99.99
2017-08-09T03:05:35.098Z,99.99
2017-08-09T03:06:34.972Z,99.99
2017-08-09T03:07:34.948Z,99.99
2017-08-09T03:08:34.932Z,99.99
2017-08-09T03:09:34.927Z,99.99
2017-08-09T03:10:34.985Z,99.99
2017-08-09T03:11:34.895Z,99.99
2017-08-09T03:12:34.892Z,99.99
2017-08-09T03:13:34.636Z,99.99
2017-08-09T03:14:34.522Z,99.99
2017-08-09T03:15:34.868Z,99.99
2017-08-09T03:16:34.795Z,99.99
2017-08-09T03:17:34.805Z,99.99
2017-08-09T03:18:34.764Z,99.99
2017-08-09T03:19:34.749Z,99.99
2017-08-09T03:20:34.726Z,99.99
2017-08-09T03:21:34.706Z,99.99
2017-08-09T03:22:34.709Z,99.99
2017-08-09T03:23:34.769Z,99.99
2017-08-09T03:24:34.665Z,99.99
2017-08-09T03:25:34.652Z,99.99
2017-08-09T03:26:34.318Z,99.99
2017-08-09T03:27:34.686Z,99.99
2017-08-09T03:28:34.286Z,99.99
2017-08-09T03:29:34.586Z,99.99
2017-08-09T03:30:34.258Z,99.99
2017-08-09T03:31:34.544Z,99.99
2017-08-09T03:32:34.228Z,99.99
2017-08-09T03:33:34.503Z,99.99
2017-08-09T03:34:34.485Z,99.99
2017-08-09T03:35:34.158Z,99.99
2017-08-09T03:36:34.149Z,99.99
2017-08-09T03:37:34.457Z,99.99
2017-08-09T03:38:34.427Z,99.99
2017-08-09T03:39:34.410Z,99.99
2017-08-09T03:40:34.075Z,99.99
2017-08-09T03:41:34.060Z,99.99
2017-08-09T03:42:34.042Z,99.99
2017-08-09T03:43:34.029Z,99.99
2017-08-09T03:44:34.320Z,99.99
2017-08-09T03:45:34.298Z,99.99
2017-08-09T03:46:34.378Z,99.99
2017-08-09T03:47:33.967Z,99.99
2017-08-09T03:48:34.351Z,99.99
2017-08-09T03:49:33.922Z,99.99
2017-08-09T03:50:34.209Z,99.99
2017-08-09T03:51:33.890Z,99.99
2017-08-09T03:52:33.870Z,99.99
2017-08-09T03:53:34.171Z,99.99
2017-08-09T03:54:33.850Z,99.99
2017-08-09T03:55:34.130Z,99.99
2017-08-09T03:56:34.277Z,99.99
2017-08-09T03:57:33.790Z,99.99
2017-08-09T03:58:34.075Z,99.99
2017-08-09T03:59:33.776Z,99.99
2017-08-09T04:00:33.741Z,99.99
2017-08-09T04:01:34.027Z,99.99
2017-08-09T04:02:34.008Z,99.99
2017-08-09T04:03:33.699Z,99.99
2017-08-09T04:04:33.670Z,99.99
2017-08-09T04:05:33.654Z,99.99
2017-08-09T04:06:33.940Z,99.99
2017-08-09T04:07:33.916Z,99.99
2017-08-09T04:08:33.908Z,99.99
2017-08-09T04:09:33.582Z,99.99
2017-08-09T04:10:33.871Z,99.99
2017-08-09T04:11:33.859Z,99.99
2017-08-09T04:12:33.531Z,99.99
2017-08-09T04:13:33.821Z,99.99
2017-08-09T04:14:33.813Z,99.99
2017-08-09T04:15:33.790Z,99.99
2017-08-09T04:16:33.461Z,99.99
2017-08-09T04:17:33.760Z,99.99
2017-08-09T04:18:33.740Z,99.99
2017-08-09T04:19:33.710Z,99.99
2017-08-09T04:20:33.700Z,99.99
2017-08-09T04:21:33.691Z,99.99
2017-08-09T04:22:33.660Z,99.99
2017-08-09T04:23:33.654Z,99.99
2017-08-09T04:24:33.320Z,99.99
2017-08-09T04:25:33.640Z,99.99
2017-08-09T04:26:33.606Z,99.99
2017-08-09T04:27:33.579Z,99.99
2017-08-09T04:28:33.569Z,99.99
2017-08-09T04:29:33.552Z,99.99
2017-08-09T04:30:33.222Z,99.99
2017-08-09T04:31:33.510Z,99.99
2017-08-09T04:32:33.502Z,99.99
2017-08-09T04:33:33.512Z,99.99
2017-08-09T04:34:33.461Z,99.99
2017-08-09T04:35:33.148Z,99.99
2017-08-09T04:36:33.435Z,99.99
2017-08-09T04:37:33.100Z,99.99
2017-08-09T04:38:33.389Z,99.99
2017-08-09T04:39:33.390Z,99.99
2017-08-09T04:40:33.051Z,99.99
2017-08-09T04:41:33.350Z,99.99
2017-08-09T04:42:33.331Z,99.99
2017-08-09T04:43:33.001Z,99.99
2017-08-09T04:44:33.301Z,99.99
2017-08-09T04:45:32.971Z,99.99
2017-08-09T04:46:33.252Z,99.99
2017-08-09T04:47:32.944Z,99.99
2017-08-09T04:48:33.225Z,99.99
2017-08-09T04:49:33.207Z,99.99
2017-08-09T04:50:33.203Z,99.99
2017-08-09T04:51:33.181Z,99.99
2017-08-09T04:52:33.153Z,99.99
2017-08-09T04:53:33.163Z,99.99
2017-08-09T04:54:33.122Z,99.99
2017-08-09T04:55:33.113Z,99.99
2017-08-09T04:56:32.782Z,99.99
2017-08-09T04:57:33.072Z,99.99
2017-08-09T04:58:33.053Z,99.99
2017-08-09T04:59:32.730Z,99.99
2017-08-09T05:00:33.023Z,99.99
2017-08-09T05:01:32.695Z,99.99
2017-08-09T05:02:32.682Z,99.99
2017-08-09T05:03:32.984Z,99.99
2017-08-09T05:04:32.954Z,99.99
2017-08-09T05:05:32.937Z,99.99
2017-08-09T05:06:32.645Z,99.99
2017-08-09T05:07:32.593Z,99.99
2017-08-09T05:08:32.882Z,99.99
2017-08-09T05:09:32.563Z,99.99
2017-08-09T05:10:32.853Z,99.99
2017-08-09T05:11:32.830Z,99.99
2017-08-09T05:12:32.510Z,99.99
2017-08-09T05:13:32.804Z,99.99
2017-08-09T05:14:32.786Z,99.99
2017-08-09T05:15:32.773Z,99.99
2017-08-09T05:16:32.762Z,99.99
2017-08-09T05:17:32.422Z,99.99
2017-08-09T05:18:32.721Z,99.99
2017-08-09T05:19:32.703Z,99.99
2017-08-09T05:20:32.680Z,99.99
2017-08-09T05:21:32.661Z,99.99
2017-08-09T05:22:32.654Z,99.99
2017-08-09T05:23:32.634Z,99.99
2017-08-09T05:24:32.330Z,99.99
2017-08-09T05:25:32.602Z,99.99
2017-08-09T05:26:32.581Z,99.99
2017-08-09T05:27:32.262Z,99.99
2017-08-09T05:28:32.552Z,99.99
2017-08-09T05:29:32.244Z,99.99
2017-08-09T05:30:32.218Z,99.99
2017-08-09T05:31:32.191Z,99.99
2017-08-09T05:32:32.505Z,99.99
2017-08-09T05:33:32.472Z,99.99
2017-08-09T05:34:32.143Z,99.99
2017-08-09T05:35:32.134Z,99.99
2017-08-09T05:36:32.418Z,99.99
2017-08-09T05:37:32.403Z,99.99
2017-08-09T05:38:32.081Z,99.99
2017-08-09T05:39:32.071Z,99.99
2017-08-09T05:40:32.353Z,99.99
2017-08-09T05:41:32.343Z,99.99
2017-08-09T05:42:32.323Z,99.99
2017-08-09T05:43:31.998Z,99.99
2017-08-09T05:44:32.292Z,99.99
2017-08-09T05:45:32.273Z,99.99
2017-08-09T05:46:32.254Z,99.99
2017-08-09T05:47:32.253Z,99.99
2017-08-09T05:48:31.912Z,99.99
2017-08-09T05:49:32.202Z,99.99
2017-08-09T05:50:32.193Z,99.99
2017-08-09T05:51:32.162Z,99.99
2017-08-09T05:52:32.154Z,99.99
2017-08-09T05:53:32.142Z,99.99
2017-08-09T05:54:31.812Z,99.99
2017-08-09T05:55:31.801Z,99.99
2017-08-09T05:56:32.083Z,99.99
2017-08-09T05:57:31.771Z,99.99
2017-08-09T05:58:32.063Z,99.99
2017-08-09T05:59:32.034Z,99.99
2017-08-09T06:00:31.714Z,99.99
2017-08-09T06:01:32.012Z,99.99
2017-08-09T06:02:31.983Z,99.99
2017-08-09T06:03:31.662Z,99.99
2017-08-09T06:04:31.953Z,99.99
2017-08-09T06:05:31.932Z,99.99
2017-08-09T06:06:31.927Z,99.99
2017-08-09T06:07:31.941Z,99.99
2017-08-09T06:08:31.892Z,99.99
2017-08-09T06:09:31.884Z,99.99
2017-08-09T06:10:31.852Z,99.99
2017-08-09T06:11:31.843Z,99.99
2017-08-09T06:12:31.832Z,99.99
2017-08-09T06:13:31.808Z,99.99
2017-08-09T06:14:31.478Z,99.99
2017-08-09T06:15:31.467Z,99.99
2017-08-09T06:16:31.764Z,99.99
2017-08-09T06:17:31.741Z,99.99
2017-08-09T06:18:31.415Z,99.99
2017-08-09T06:19:31.701Z,99.99
2017-08-09T06:20:31.388Z,99.99
2017-08-09T06:21:31.667Z,99.99
2017-08-09T06:22:31.353Z,99.99
2017-08-09T06:23:31.333Z,99.99
2017-08-09T06:24:31.682Z,99.99
2017-08-09T06:25:31.599Z,99.99
2017-08-09T06:26:31.583Z,99.99
2017-08-09T06:27:31.274Z,99.99
2017-08-09T06:28:31.650Z,99.99
2017-08-09T06:29:31.228Z,99.99
2017-08-09T06:30:31.518Z,99.99
2017-08-09T06:31:31.202Z,99.99
2017-08-09T06:32:31.492Z,99.99
2017-08-09T06:33:31.464Z,99.99
2017-08-09T06:34:31.584Z,99.99
2017-08-09T06:35:31.446Z,99.99
2017-08-09T06:36:31.562Z,99.99
2017-08-09T06:37:31.402Z,99.99
2017-08-09T06:38:31.491Z,99.99
2017-08-09T06:39:31.363Z,99.99
2017-08-09T06:40:31.453Z,99.99
2017-08-09T06:41:31.342Z,99.99
2017-08-09T06:42:31.352Z,99.99
2017-08-09T06:43:31.003Z,99.99
2017-08-09T06:44:31.301Z,99.99
2017-08-09T06:45:31.321Z,99.99
2017-08-09T06:46:31.323Z,99.99
2017-08-09T06:47:31.243Z,99.99
2017-08-09T06:48:31.224Z,99.99
2017-08-09T06:49:31.210Z,99.99
2017-08-09T06:50:31.252Z,99.99
2017-08-09T06:51:31.174Z,99.99
2017-08-09T06:52:31.155Z,99.99
2017-08-09T06:53:31.141Z,99.99
2017-08-09T06:54:31.178Z,99.99
2017-08-09T06:55:31.104Z,99.99
2017-08-09T06:56:31.090Z,99.99
2017-08-09T06:57:31.096Z,99.99
2017-08-09T06:58:31.062Z,99.99
2017-08-09T06:59:31.138Z,99.99
2017-08-09T07:00:31.081Z,99.99
2017-08-09T07:01:30.701Z,99.99
2017-08-09T07:02:30.692Z,99.99
2017-08-09T07:03:30.672Z,99.99
2017-08-09T07:04:31.002Z,99.99
2017-08-09T07:05:30.624Z,99.99
2017-08-09T07:06:30.918Z,99.99
2017-08-09T07:07:30.902Z,99.99
2017-08-09T07:08:30.891Z,99.99
2017-08-09T07:09:30.882Z,99.99
2017-08-09T07:10:30.887Z,99.99
2017-08-09T07:11:30.842Z,99.99
2017-08-09T07:12:30.821Z,99.99
2017-08-09T07:13:30.902Z,99.99
2017-08-09T07:14:30.802Z,99.99
2017-08-09T07:15:30.822Z,99.99
2017-08-09T07:16:30.773Z,99.99
2017-08-09T07:17:30.788Z,99.99
2017-08-09T07:18:30.734Z,99.99
2017-08-09T07:19:30.753Z,99.99
2017-08-09T07:20:30.693Z,99.99
2017-08-09T07:21:30.689Z,99.99
2017-08-09T07:22:30.351Z,99.99
2017-08-09T07:23:30.640Z,99.99
2017-08-09T07:24:30.619Z,99.99
2017-08-09T07:25:30.602Z,99.99
2017-08-09T07:26:30.582Z,99.99
2017-08-09T07:27:30.271Z,99.99
2017-08-09T07:28:30.556Z,99.99
2017-08-09T07:29:30.543Z,99.99
2017-08-09T07:30:30.518Z,99.99
2017-08-09T07:31:30.553Z,99.99
2017-08-09T07:32:30.192Z,99.99
2017-08-09T07:33:30.480Z,99.99
2017-08-09T07:34:30.463Z,99.99
2017-08-09T07:35:30.444Z,99.99
2017-08-09T07:36:30.431Z,99.99
2017-08-09T07:37:30.419Z,99.99
2017-08-09T07:38:30.092Z,99.99
2017-08-09T07:39:30.071Z,99.99
2017-08-09T07:40:30.354Z,99.99
2017-08-09T07:41:30.362Z,99.99
2017-08-09T07:42:30.333Z,99.99
2017-08-09T07:43:30.322Z,99.99
2017-08-09T07:44:30.303Z,99.99
2017-08-09T07:45:30.293Z,99.99
2017-08-09T07:46:30.283Z,99.99
2017-08-09T07:47:29.941Z,99.99
2017-08-09T07:48:30.243Z,99.99
2017-08-09T07:49:29.923Z,99.99
2017-08-09T07:50:30.212Z,99.99
2017-08-09T07:51:30.200Z,99.99
2017-08-09T07:52:30.170Z,99.99
2017-08-09T07:53:30.160Z,99.99
2017-08-09T07:54:30.154Z,99.99
2017-08-09T07:55:29.819Z,99.99
2017-08-09T07:56:30.103Z,99.99
2017-08-09T07:57:30.092Z,99.99
2017-08-09T07:58:30.082Z,99.99
2017-08-09T07:59:30.061Z,99.99
2017-08-09T08:00:30.045Z,99.99
2017-08-09T08:01:30.040Z,99.99
2017-08-09T08:02:30.011Z,99.99
2017-08-09T08:03:30.000Z,99.99
2017-08-09T08:04:29.980Z,99.99
2017-08-09T08:05:29.661Z,99.99
2017-08-09T08:06:29.642Z,99.99
2017-08-09T08:07:29.944Z,99.99
2017-08-09T08:08:29.624Z,99.99
2017-08-09T08:09:29.901Z,99.99
2017-08-09T08:10:29.886Z,99.99
2017-08-09T08:11:29.884Z,99.99
2017-08-09T08:12:29.550Z,99.99
2017-08-09T08:13:29.855Z,99.99
2017-08-09T08:14:29.853Z,99.99
2017-08-09T08:15:29.839Z,99.99
2017-08-09T08:16:29.802Z,99.99
2017-08-09T08:17:29.783Z,99.99
2017-08-09T08:18:29.789Z,99.99
2017-08-09T08:19:29.752Z,99.99
2017-08-09T08:20:29.744Z,99.99
2017-08-09T08:21:29.722Z,99.99
2017-08-09T08:22:29.712Z,99.99
2017-08-09T08:23:29.701Z,99.99
2017-08-09T08:24:29.377Z,99.99
2017-08-09T08:25:29.670Z,99.99
2017-08-09T08:26:29.659Z,99.99
2017-08-09T08:27:29.442Z,99.99
2017-08-09T08:28:29.628Z,99.99
2017-08-09T08:29:29.645Z,99.99
2017-08-09T08:30:29.602Z,99.99
2017-08-09T08:31:29.571Z,99.99
2017-08-09T08:32:29.261Z,99.99
2017-08-09T08:33:29.553Z,99.99
2017-08-09T08:34:29.232Z,99.99
2017-08-09T08:35:29.544Z,99.99
2017-08-09T08:36:29.513Z,99.99
2017-08-09T08:37:29.501Z,99.99
2017-08-09T08:38:29.479Z,99.99
2017-08-09T08:39:29.472Z,99.99
2017-08-09T08:40:29.159Z,99.99
2017-08-09T08:41:29.529Z,99.99
2017-08-09T08:42:29.120Z,99.99
2017-08-09T08:43:29.439Z,99.99
2017-08-09T08:44:29.401Z,99.99
2017-08-09T08:45:29.082Z,99.99
2017-08-09T08:46:29.375Z,99.99
2017-08-09T08:47:29.455Z,99.99
2017-08-09T08:48:29.356Z,99.99
2017-08-09T08:49:29.143Z,99.99
2017-08-09T08:50:29.323Z,99.99
2017-08-09T08:51:29.084Z,99.99
2017-08-09T08:52:29.411Z,99.99
2017-08-09T08:53:29.281Z,99.99
2017-08-09T08:54:29.273Z,99.99
2017-08-09T08:55:28.942Z,99.99
2017-08-09T08:56:29.235Z,99.99
2017-08-09T08:57:29.345Z,99.99
2017-08-09T08:58:28.913Z,99.99
2017-08-09T08:59:28.940Z,99.99
2017-08-09T09:00:29.241Z,99.99
2017-08-09T09:01:29.180Z,99.99
2017-08-09T09:02:29.166Z,99.99
2017-08-09T09:03:28.942Z,99.99
2017-08-09T09:04:28.825Z,99.99
2017-08-09T09:05:29.127Z,99.99
2017-08-09T09:06:29.112Z,99.99
2017-08-09T09:07:29.141Z,99.99
2017-08-09T09:08:29.127Z,99.99
2017-08-09T09:09:29.133Z,99.99
2017-08-09T09:10:29.056Z,99.99
2017-08-09T09:11:29.042Z,99.99
2017-08-09T09:12:29.037Z,99.99
2017-08-09T09:13:29.288Z,99.99
2017-08-09T09:14:29.006Z,99.99
2017-08-09T09:15:29.002Z,99.99
2017-08-09T09:16:28.684Z,99.99
2017-08-09T09:17:28.972Z,99.99
2017-08-09T09:18:28.954Z,99.99
2017-08-09T09:19:28.962Z,99.99
2017-08-09T09:20:28.934Z,99.99
2017-08-09T09:21:28.913Z,99.99
2017-08-09T09:22:28.943Z,99.99
2017-08-09T09:23:28.898Z,99.99
2017-08-09T09:24:28.874Z,99.99
2017-08-09T09:25:28.851Z,99.99
2017-08-09T09:26:28.849Z,99.99
2017-08-09T09:27:28.525Z,99.99
2017-08-09T09:28:28.844Z,99.99
2017-08-09T09:29:28.505Z,99.99
2017-08-09T09:30:28.806Z,99.99
2017-08-09T09:31:28.784Z,99.99
2017-08-09T09:32:28.787Z,99.99
2017-08-09T09:33:28.455Z,99.99
2017-08-09T09:34:28.429Z,98.39
2017-08-09T09:35:28.725Z,98
2017-08-09T09:36:28.719Z,97.96
2017-08-09T09:37:28.719Z,97.24
2017-08-09T09:38:28.721Z,96.37
2017-08-09T09:39:28.687Z,97.04
2017-08-09T09:40:28.367Z,97.42
2017-08-09T09:41:28.676Z,96.99
2017-08-09T09:42:28.334Z,97.76
2017-08-09T09:43:28.643Z,98.15
2017-08-09T09:44:28.629Z,98.44
2017-08-09T09:45:28.294Z,97.57
2017-08-09T09:46:28.286Z,97.28
2017-08-09T09:47:28.588Z,97.19
2017-08-09T09:48:28.584Z,97.47
2017-08-09T09:49:28.552Z,96.51
2017-08-09T09:50:28.547Z,96.85
2017-08-09T09:51:28.543Z,95.5
2017-08-09T09:52:28.515Z,95.84
2017-08-09T09:53:28.506Z,94.92
2017-08-09T09:54:28.505Z,93.66
2017-08-09T09:55:28.174Z,93.85
2017-08-09T09:56:28.175Z,94.29
2017-08-09T09:57:28.155Z,93.81
2017-08-09T09:58:28.465Z,92.6
2017-08-09T09:59:28.455Z,92.46
2017-08-09T10:00:28.435Z,91.39
2017-08-09T10:01:28.441Z,89.65
2017-08-09T10:02:28.405Z,88.39
2017-08-09T10:03:28.406Z,88.05
2017-08-09T10:04:28.396Z,87.71
2017-08-09T10:05:28.388Z,88.63
2017-08-09T10:06:28.387Z,88.78
2017-08-09T10:07:28.375Z,88.63
2017-08-09T10:08:28.355Z,88.92
2017-08-09T10:09:28.354Z,87.66
2017-08-09T10:10:28.336Z,87.81
2017-08-09T10:11:28.329Z,88.01
2017-08-09T10:12:28.345Z,88.01
2017-08-09T10:13:28.318Z,88.2
2017-08-09T10:14:28.294Z,87.37
2017-08-09T10:15:28.309Z,87.03
2017-08-09T10:16:27.975Z,87.27
2017-08-09T10:17:28.275Z,86.99
2017-08-09T10:18:27.956Z,87.47
2017-08-09T10:19:27.945Z,87.85
2017-08-09T10:20:27.935Z,86.93
2017-08-09T10:21:28.245Z,85.77
2017-08-09T10:22:28.228Z,84.84
2017-08-09T10:23:27.907Z,86.55
2017-08-09T10:24:28.204Z,86.69
2017-08-09T10:25:28.191Z,85.66
2017-08-09T10:26:28.186Z,84.06
2017-08-09T10:27:27.872Z,82.6
2017-08-09T10:28:28.165Z,82.6
2017-08-09T10:29:27.868Z,83.15
2017-08-09T10:30:28.155Z,84.08
2017-08-09T10:31:28.144Z,86.65
2017-08-09T10:32:28.122Z,87.27
2017-08-09T10:33:28.123Z,87.76
2017-08-09T10:34:28.115Z,85.97
2017-08-09T10:35:28.114Z,86.16
2017-08-09T10:36:28.093Z,87.81
2017-08-09T10:37:28.085Z,87.52
2017-08-09T10:38:28.072Z,87.87
2017-08-09T10:39:28.064Z,88.59
2017-08-09T10:40:28.052Z,88.4
2017-08-09T10:41:28.044Z,88.64
2017-08-09T10:42:27.725Z,88.64
2017-08-09T10:43:28.052Z,88.54
2017-08-09T10:44:28.002Z,88.02
2017-08-09T10:45:27.996Z,87.96
2017-08-09T10:46:27.981Z,88.31
2017-08-09T10:47:27.982Z,87.53
2017-08-09T10:48:27.953Z,88.31
2017-08-09T10:49:28.036Z,87.63
2017-08-09T10:50:27.939Z,87.38
2017-08-09T10:51:28.073Z,86.61
2017-08-09T10:52:27.924Z,86.36
2017-08-09T10:53:27.929Z,86.17
2017-08-09T10:54:27.903Z,86.07
2017-08-09T10:55:27.712Z,84.09
2017-08-09T10:56:27.863Z,84.28
2017-08-09T10:57:27.864Z,84.03
2017-08-09T10:58:27.541Z,84.67
2017-08-09T10:59:27.902Z,85.93
2017-08-09T11:00:27.835Z,84.38
2017-08-09T11:01:27.912Z,84.8
2017-08-09T11:02:27.803Z,85.1
2017-08-09T11:03:28.006Z,83.74
2017-08-09T11:04:27.472Z,83.16
2017-08-09T11:05:27.461Z,83.55
2017-08-09T11:06:27.772Z,84.03
2017-08-09T11:07:27.804Z,82.62
2017-08-09T11:08:27.742Z,81.85
2017-08-09T11:09:27.734Z,81.02
2017-08-09T11:10:27.404Z,81.65
2017-08-09T11:11:27.767Z,82.14
2017-08-09T11:12:27.701Z,82.33
2017-08-09T11:13:27.686Z,82.78
2017-08-09T11:14:27.670Z,82.78
2017-08-09T11:15:27.652Z,83.45
2017-08-09T11:16:27.662Z,83.89
2017-08-09T11:17:27.334Z,84.09
2017-08-09T11:18:27.332Z,84.47
2017-08-09T11:19:27.622Z,83.99
2017-08-09T11:20:27.608Z,83.99
2017-08-09T11:21:27.593Z,84.03
2017-08-09T11:22:27.588Z,84.42
2017-08-09T11:23:27.584Z,83.84
2017-08-09T11:24:27.264Z,85.44
2017-08-09T11:25:27.554Z,83.99
2017-08-09T11:26:27.567Z,83.7
2017-08-09T11:27:27.536Z,84.53
2017-08-09T11:28:27.532Z,84.72
2017-08-09T11:29:27.519Z,85.59
2017-08-09T11:30:27.192Z,85.3
2017-08-09T11:31:27.175Z,84.32
2017-08-09T11:32:27.471Z,83.45
2017-08-09T11:33:27.465Z,83.74
2017-08-09T11:34:27.464Z,84.32
2017-08-09T11:35:27.443Z,84.61
2017-08-09T11:36:27.435Z,85.25
2017-08-09T11:37:27.112Z,84.42
2017-08-09T11:38:27.403Z,83.94
2017-08-09T11:39:27.420Z,84.03
2017-08-09T11:40:27.393Z,83.59
2017-08-09T11:41:27.382Z,82.43
2017-08-09T11:42:27.362Z,82.66
2017-08-09T11:43:27.354Z,83.88
2017-08-09T11:44:27.343Z,83.45
2017-08-09T11:45:27.325Z,82.97
2017-08-09T11:46:27.318Z,83.36
2017-08-09T11:47:27.312Z,83.16
2017-08-09T11:48:27.013Z,81.65
2017-08-09T11:49:26.969Z,82.08
2017-08-09T11:50:27.280Z,80.19
2017-08-09T11:51:26.958Z,78.87
2017-08-09T11:52:26.951Z,79.64
2017-08-09T11:53:27.248Z,80.57
2017-08-09T11:54:27.371Z,83.11
2017-08-09T11:55:27.260Z,83.94
2017-08-09T11:56:26.932Z,83.64
2017-08-09T11:57:27.235Z,83.89
2017-08-09T11:58:27.181Z,84.13
2017-08-09T11:59:26.870Z,83.11
2017-08-09T12:00:27.161Z,82.33
2017-08-09T12:01:26.844Z,82.33
2017-08-09T12:02:26.842Z,81.7
2017-08-09T12:03:26.831Z,80.92
2017-08-09T12:04:27.134Z,78.89
2017-08-09T12:05:27.134Z,78.83
2017-08-09T12:06:27.104Z,77.76
2017-08-09T12:07:27.112Z,78.83
2017-08-09T12:08:26.780Z,78.58
2017-08-09T12:09:26.763Z,78.38
2017-08-09T12:10:27.078Z,79.91
2017-08-09T12:11:26.751Z,80.69
2017-08-09T12:12:27.038Z,79.17
2017-08-09T12:13:26.730Z,79.22
2017-08-09T12:14:26.717Z,78.29
2017-08-09T12:15:26.706Z,75.9
2017-08-09T12:16:26.693Z,75.71
2017-08-09T12:17:27.022Z,76.1
2017-08-09T12:18:26.980Z,76.97
2017-08-09T12:19:26.975Z,77.7
2017-08-09T12:20:26.651Z,77.61
2017-08-09T12:21:26.950Z,77.51
2017-08-09T12:22:26.941Z,76.54
2017-08-09T12:23:26.631Z,76.39
2017-08-09T12:24:26.928Z,74.45
2017-08-09T12:25:26.604Z,74.35
2017-08-09T12:26:26.903Z,73.8
2017-08-09T12:27:26.595Z,73.8
2017-08-09T12:28:26.581Z,74.7
2017-08-09T12:29:26.871Z,75.19
2017-08-09T12:30:26.861Z,75.67
2017-08-09T12:31:26.565Z,75.63
2017-08-09T12:32:26.839Z,75.92
2017-08-09T12:33:26.518Z,75.54
2017-08-09T12:34:26.511Z,74.9
2017-08-09T12:35:26.823Z,74.35
2017-08-09T12:36:26.502Z,75.07
2017-08-09T12:37:26.491Z,73.65
2017-08-09T12:38:26.789Z,71.94
2017-08-09T12:39:26.471Z,72.87
2017-08-09T12:40:26.771Z,73.32
2017-08-09T12:41:26.460Z,73.52
2017-08-09T12:42:26.741Z,74.74
2017-08-09T12:43:26.737Z,76.06
2017-08-09T12:44:26.420Z,75.57
2017-08-09T12:45:26.720Z,75.42
2017-08-09T12:46:26.701Z,74.97
2017-08-09T12:47:26.696Z,74.19
2017-08-09T12:48:26.385Z,74.35
2017-08-09T12:49:26.379Z,75.23
2017-08-09T12:50:26.360Z,75.13
2017-08-09T12:51:26.350Z,74.84
2017-08-09T12:52:26.648Z,75.34
2017-08-09T12:53:26.640Z,76.41